Hellertown, Pennsylvania
Current Conditions -  °F | °C
As of 7:51 PM on Monday 26 Jan 2015 (Local Time) from KABE Reporting Station
Overcast Overcast  
Wind Chill:   Ceiling: 5500
Heat Index: 23°   Visibility: 10mi
Dew Point: 16°   Wind: 18mph
Humidity: 74%   Direction: 60°ENE
Pressure: 29.81"   Gusts: 29mph
Location:  40.58°N, 75.34°W
Report Text: KABE 270051Z 06016G25KT 10SM OVC055 M05/M09 A2981 RMK AO2 SNE23 SLP101 P0000 T10501089
Loading
Personal Weather Stations






























Interactive Weather Map New forecast layout! Learn more

10-Day Weather Forecast

Advertisements
Track Severe Weather on mobile